Time;durP1;ratioP1;P1;durP2;ratioP2;P2;SDS_P1;SDS_P2;PMS_P1;PMS_P2;Temp;Humidity;BMP_temperature;BMP_pressure;BME280_temperature;BME280_humidity;BME280_pressure;Samples;Min_cycle;Max_cycle;Signal;HPM_P1;HPM_P2
2023/07/09 00:00:48;;;;;;;1.97;1.87;;;;;;;21.58;70.37;95875.38;4358908;32;20207;-64
2023/07/09 00:03:14;;;;;;;2.07;1.80;;;;;;;21.60;70.02;95873.12;4345804;32;20308;-64
2023/07/09 00:05:40;;;;;;;1.30;1.30;;;;;;;21.61;70.81;95870.06;4346546;32;20189;-64
2023/07/09 00:08:09;;;;;;;1.37;1.37;;;;;;;21.47;71.53;95858.91;4343044;32;21670;-64
2023/07/09 00:10:35;;;;;;;1.73;1.57;;;;;;;21.45;70.71;95858.47;4356340;32;20173;-64
2023/07/09 00:13:00;;;;;;;2.20;2.00;;;;;;;21.45;71.74;95855.78;4354626;32;20188;-64
2023/07/09 00:15:26;;;;;;;2.27;2.17;;;;;;;21.39;71.75;95859.91;4346957;32;20207;-64
2023/07/09 00:17:52;;;;;;;1.97;1.87;;;;;;;21.50;71.20;95863.63;4354663;32;20200;-64
2023/07/09 00:20:18;;;;;;;1.90;1.80;;;;;;;21.46;71.58;95867.38;4360091;32;20204;-64
2023/07/09 00:22:52;;;;;;;1.27;1.27;;;;;;;21.42;71.47;95869.19;4358125;32;20193;-64
2023/07/09 00:25:19;;;;;;;1.40;1.40;;;;;;;21.41;71.27;95870.31;4357285;32;20189;-64
2023/07/09 00:27:48;;;;;;;0.93;0.93;;;;;;;21.41;70.78;95870.31;4348197;32;20191;-64
2023/07/09 00:30:23;;;;;;;1.23;1.23;;;;;;;21.40;70.48;95866.09;4346413;32;20197;-64
2023/07/09 00:32:49;;;;;;;1.60;1.50;;;;;;;21.38;71.67;95871.03;4358035;32;20196;-64
2023/07/09 00:35:15;;;;;;;1.60;1.50;;;;;;;21.40;70.25;95876.87;4361903;32;20203;-64
2023/07/09 00:37:45;;;;;;;1.50;1.40;;;;;;;21.43;70.75;95873.47;4342750;32;20254;-64
2023/07/09 00:40:20;;;;;;;1.40;1.40;;;;;;;21.41;71.54;95876.50;4362851;32;20209;-64
2023/07/09 00:42:48;;;;;;;1.70;1.67;;;;;;;21.33;71.96;95880.19;4346277;32;20264;-64
2023/07/09 00:45:25;;;;;;;1.37;1.37;;;;;;;21.30;72.57;95882.78;4362788;32;20196;-64
2023/07/09 00:47:56;;;;;;;1.37;1.27;;;;;;;21.23;73.31;95884.16;4355103;32;20188;-64
2023/07/09 00:50:29;;;;;;;2.17;2.07;;;;;;;21.18;74.81;95883.63;4363354;32;20262;-64
2023/07/09 00:52:58;;;;;;;1.30;1.23;;;;;;;21.17;74.19;95888.25;4360966;32;20189;-64
2023/07/09 00:55:30;;;;;;;1.30;1.30;;;;;;;21.21;72.70;95889.12;4356180;32;20189;-64
2023/07/09 00:58:01;;;;;;;5.10;2.03;;;;;;;21.26;73.41;95883.47;4346407;32;20209;-64
2023/07/09 01:00:46;;;;;;;1.80;1.70;;;;;;;21.26;74.69;95888.88;4362736;32;20185;-64
2023/07/09 01:03:29;;;;;;;2.57;2.37;;;;;;;21.25;72.41;95879.22;4347825;32;20256;-64
2023/07/09 01:05:57;;;;;;;1.23;1.23;;;;;;;21.15;73.80;95895.13;4349417;32;20197;-65
2023/07/09 01:08:23;;;;;;;2.30;2.10;;;;;;;21.09;74.19;95886.50;4360590;32;20201;-64
2023/07/09 01:10:49;;;;;;;4.50;1.37;;;;;;;21.15;73.09;95889.72;4363345;32;20189;-64
2023/07/09 01:13:16;;;;;;;1.37;1.37;;;;;;;21.16;74.02;95885.91;4363970;32;20207;-64
2023/07/09 01:15:42;;;;;;;1.73;1.63;;;;;;;21.12;74.46;95885.78;4349911;32;20196;-64
2023/07/09 01:18:08;;;;;;;2.43;2.33;;;;;;;21.14;74.58;95886.25;4359190;32;20227;-64
2023/07/09 01:20:34;;;;;;;2.20;2.10;;;;;;;21.09;75.16;95893.78;4348429;32;20203;-64
2023/07/09 01:23:00;;;;;;;1.93;1.83;;;;;;;21.09;74.47;95896.50;4343145;32;20189;-64
2023/07/09 01:25:27;;;;;;;1.60;1.53;;;;;;;20.99;75.16;95897.78;4341360;32;20207;-64
2023/07/09 01:27:54;;;;;;;1.20;1.20;;;;;;;21.01;74.26;95903.59;4343223;32;20193;-64
2023/07/09 01:30:28;;;;;;;1.73;1.67;;;;;;;21.06;73.31;95900.66;4362497;32;20207;-64
2023/07/09 01:32:58;;;;;;;4.17;2.50;;;;;;;21.03;74.84;95900.56;4346743;32;20184;-64
2023/07/09 01:35:25;;;;;;;2.60;1.40;;;;;;;20.95;74.40;95902.31;4348584;32;20212;-64
2023/07/09 01:37:51;;;;;;;1.87;1.70;;;;;;;20.99;72.84;95905.09;4347618;32;20200;-64
2023/07/09 01:40:19;;;;;;;1.63;1.63;;;;;;;21.06;73.62;95906.06;4345194;32;20189;-64
2023/07/09 01:42:45;;;;;;;1.70;1.60;;;;;;;21.04;73.32;95902.91;4358971;32;20224;-64
2023/07/09 01:45:12;;;;;;;1.70;1.47;;;;;;;21.03;75.06;95903.25;4357000;32;20197;-64
2023/07/09 01:47:38;;;;;;;1.00;1.00;;;;;;;21.01;74.41;95906.31;4355107;32;20263;-64
2023/07/09 01:50:06;;;;;;;5.30;1.83;;;;;;;20.97;74.70;95907.37;4346682;32;20189;-64
2023/07/09 01:52:32;;;;;;;4.10;1.97;;;;;;;20.92;75.68;95903.00;4343975;32;20201;-64
2023/07/09 01:54:58;;;;;;;1.10;1.10;;;;;;;20.93;74.41;95901.88;4358501;32;20231;-64
2023/07/09 01:57:34;;;;;;;1.70;1.67;;;;;;;20.93;75.01;95907.25;4342962;32;20197;-64
2023/07/09 02:00:05;;;;;;;2.30;1.27;;;;;;;20.85;76.88;95908.97;4359497;32;20210;-64
2023/07/09 02:02:32;;;;;;;1.27;1.27;;;;;;;20.88;75.89;95900.19;4355242;32;20208;-64
2023/07/09 02:04:58;;;;;;;1.20;1.20;;;;;;;20.85;75.12;95911.69;4345898;32;20233;-64
2023/07/09 02:07:24;;;;;;;1.03;1.03;;;;;;;20.85;76.40;95908.19;4353775;32;20248;-64
2023/07/09 02:09:50;;;;;;;1.53;1.50;;;;;;;20.86;75.12;95912.47;4354978;32;20197;-64
2023/07/09 02:12:16;;;;;;;1.47;1.20;;;;;;;20.89;74.65;95911.78;4361000;32;20189;-64
2023/07/09 02:14:43;;;;;;;2.07;1.27;;;;;;;20.95;75.14;95905.00;4354171;32;20218;-64
2023/07/09 02:17:10;;;;;;;1.97;1.87;;;;;;;20.92;75.51;95913.78;4348456;32;20252;-64
2023/07/09 02:19:36;;;;;;;1.23;0.97;;;;;;;20.86;76.14;95912.47;4360619;32;20197;-64
2023/07/09 02:22:02;;;;;;;1.43;1.43;;;;;;;20.86;75.19;95907.06;4359714;32;20247;-64
2023/07/09 02:24:27;;;;;;;2.67;2.07;;;;;;;20.83;75.62;95910.44;4359605;32;20196;-64
2023/07/09 02:26:57;;;;;;;1.60;1.50;;;;;;;20.80;76.50;95911.91;4358765;32;20200;-64
2023/07/09 02:29:23;;;;;;;1.10;1.10;;;;;;;20.80;76.02;95906.53;4347438;32;20197;-64
2023/07/09 02:31:50;;;;;;;3.00;1.47;;;;;;;20.74;76.01;95913.31;4355982;32;20199;-64
2023/07/09 02:34:15;;;;;;;3.57;1.83;;;;;;;20.74;75.83;95907.13;4363122;32;20207;-64
2023/07/09 02:36:42;;;;;;;1.30;1.30;;;;;;;20.72;75.90;95912.88;4344820;32;20201;-66
2023/07/09 02:39:12;;;;;;;2.37;2.00;;;;;;;20.78;75.83;95913.41;4341181;32;20212;-64
2023/07/09 02:41:38;;;;;;;4.90;1.87;;;;;;;20.72;75.35;95912.88;4346833;32;20213;-64
2023/07/09 02:44:04;;;;;;;1.40;1.40;;;;;;;20.63;76.67;95911.44;4327891;32;20181;-65
2023/07/09 02:46:29;;;;;;;1.70;1.70;;;;;;;20.63;77.44;95916.81;4338033;32;20193;-65
2023/07/09 02:48:55;;;;;;;1.90;1.10;;;;;;;20.65;77.31;95917.25;4349094;32;20193;-64
2023/07/09 02:51:20;;;;;;;1.20;1.20;;;;;;;20.65;77.63;95917.25;4329373;32;20243;-64
2023/07/09 02:53:45;;;;;;;1.53;1.43;;;;;;;20.67;76.56;95920.41;4355998;32;20201;-65
2023/07/09 02:56:11;;;;;;;2.00;1.80;;;;;;;20.62;76.19;95915.25;4338882;32;20240;-65
2023/07/09 02:58:36;;;;;;;1.53;1.53;;;;;;;20.62;76.23;95915.25;4347656;32;20265;-65
2023/07/09 03:01:03;;;;;;;1.33;1.33;;;;;;;20.58;76.76;95915.94;4341875;32;20224;-64
2023/07/09 03:03:28;;;;;;;1.00;1.00;;;;;;;20.57;76.76;95919.78;4349061;32;20196;-64
2023/07/09 03:05:55;;;;;;;1.37;1.27;;;;;;;20.61;77.11;95916.37;4346727;32;20228;-64
2023/07/09 03:08:20;;;;;;;2.03;1.93;;;;;;;20.58;76.14;95917.84;4334197;32;20235;-64
2023/07/09 03:10:46;;;;;;;2.00;1.90;;;;;;;20.54;77.22;95925.84;4333160;32;20189;-64
2023/07/09 03:13:11;;;;;;;1.87;1.77;;;;;;;20.61;75.78;95930.63;4360138;32;20216;-64
2023/07/09 03:15:36;;;;;;;0.87;0.87;;;;;;;20.57;76.82;95930.56;4335888;32;20332;-64
2023/07/09 03:18:02;;;;;;;2.33;2.00;;;;;;;20.48;76.64;95927.22;4346221;32;20257;-64
2023/07/09 03:20:27;;;;;;;2.77;1.57;;;;;;;20.44;77.75;95931.72;4336792;32;20191;-64
2023/07/09 03:22:53;;;;;;;1.13;1.13;;;;;;;20.48;77.57;95927.22;4351526;32;20201;-64
2023/07/09 03:25:18;;;;;;;1.67;1.57;;;;;;;20.45;76.28;95933.28;4344588;32;20186;-64
2023/07/09 03:27:43;;;;;;;1.77;1.60;;;;;;;20.54;76.27;95931.25;4352598;32;20244;-64
2023/07/09 03:30:09;;;;;;;1.57;1.57;;;;;;;20.55;76.51;95932.03;4349872;32;20271;-65
2023/07/09 03:32:34;;;;;;;1.97;1.87;;;;;;;20.52;75.93;95936.19;4355130;32;20244;-64
2023/07/09 03:35:00;;;;;;;1.60;1.50;;;;;;;20.64;75.21;95934.56;4333509;32;20193;-64
2023/07/09 03:37:25;;;;;;;1.23;1.23;;;;;;;20.64;75.20;95931.87;4337013;32;20237;-64
2023/07/09 03:39:50;;;;;;;1.33;1.33;;;;;;;20.67;75.36;95934.69;4330813;32;20189;-64
2023/07/09 03:42:16;;;;;;;1.50;1.40;;;;;;;20.56;76.63;95944.38;4346352;32;20306;-65
2023/07/09 03:44:41;;;;;;;1.87;1.77;;;;;;;20.63;75.19;95946.47;4339383;32;20223;-64
2023/07/09 03:47:07;;;;;;;1.37;1.37;;;;;;;20.52;75.84;95944.28;4345799;32;20193;-64
2023/07/09 03:49:33;;;;;;;1.90;1.73;;;;;;;20.64;74.55;95946.16;4332161;32;20219;-64
2023/07/09 03:51:58;;;;;;;2.17;1.50;;;;;;;20.52;76.11;95943.50;4329440;32;20200;-64
2023/07/09 03:54:23;;;;;;;1.83;1.73;;;;;;;20.57;75.36;95948.66;4340485;32;20244;-64
2023/07/09 03:56:49;;;;;;;1.03;1.03;;;;;;;20.53;75.42;95951.25;4328258;32;20303;-64
2023/07/09 03:59:14;;;;;;;2.40;1.70;;;;;;;20.52;76.28;95946.97;4346012;32;20193;-64
2023/07/09 04:01:42;;;;;;;0.80;0.80;;;;;;;20.52;75.78;95949.66;4330271;32;20236;-64
2023/07/09 04:04:08;;;;;;;0.87;0.87;;;;;;;20.44;77.26;95955.19;4331912;32;20200;-64
2023/07/09 04:06:33;;;;;;;0.83;0.70;;;;;;;20.50;75.73;95951.91;4337777;32;20182;-64
2023/07/09 04:08:59;;;;;;;1.97;1.87;;;;;;;20.49;75.73;95950.34;4342846;32;20236;-65
2023/07/09 04:11:24;;;;;;;1.37;1.27;;;;;;;20.49;75.77;95952.25;4344374;32;20219;-64
2023/07/09 04:13:49;;;;;;;1.93;1.57;;;;;;;20.53;75.43;95953.94;4343739;32;20193;-64
2023/07/09 04:16:15;;;;;;;1.30;1.30;;;;;;;20.47;76.15;95952.59;4337716;32;20260;-64
2023/07/09 04:18:40;;;;;;;1.30;1.27;;;;;;;20.42;75.98;95952.81;4331792;32;20193;-64
2023/07/09 04:21:05;;;;;;;2.83;1.30;;;;;;;20.46;75.73;95952.94;4349731;32;20242;-64
2023/07/09 04:23:30;;;;;;;2.17;2.07;;;;;;;20.48;75.78;95954.16;4344185;32;20221;-64
2023/07/09 04:25:57;;;;;;;0.80;0.80;;;;;;;20.51;76.05;95952.72;4346755;32;20221;-64
2023/07/09 04:28:22;;;;;;;2.10;2.00;;;;;;;20.55;76.00;95959.78;4322639;33;20240;-64
2023/07/09 04:30:51;;;;;;;1.07;1.07;;;;;;;20.50;76.43;95957.31;4330521;32;20185;-64
2023/07/09 04:33:17;;;;;;;1.30;1.20;;;;;;;20.47;76.61;95957.19;4343762;32;20208;-64
2023/07/09 04:35:45;;;;;;;1.63;1.53;;;;;;;20.57;76.29;95965.62;4343355;32;20204;-64
2023/07/09 04:38:10;;;;;;;1.83;1.27;;;;;;;20.56;76.45;95966.75;4355065;32;20185;-64
2023/07/09 04:40:35;;;;;;;4.27;1.70;;;;;;;20.53;77.14;95967.41;4356709;32;20192;-64
2023/07/09 04:43:01;;;;;;;1.63;1.53;;;;;;;20.58;76.23;95969.06;4345715;32;20204;-64
2023/07/09 04:45:26;;;;;;;2.63;1.63;;;;;;;20.53;77.84;95964.72;4354946;32;20197;-64
2023/07/09 04:47:52;;;;;;;1.43;1.33;;;;;;;20.52;76.54;95970.44;4360103;32;20243;-64
2023/07/09 04:50:18;;;;;;;3.07;1.17;;;;;;;20.58;76.38;95975.25;4359695;32;20189;-64
2023/07/09 04:52:43;;;;;;;1.13;1.13;;;;;;;20.59;76.45;95962.56;4345891;32;20209;-64
2023/07/09 04:55:08;;;;;;;1.10;1.10;;;;;;;20.56;76.86;95972.12;4357965;32;20189;-64
2023/07/09 04:57:34;;;;;;;2.00;1.40;;;;;;;20.64;76.64;95964.22;4360209;32;20193;-64
2023/07/09 04:59:59;;;;;;;2.43;2.27;;;;;;;20.59;77.91;95971.44;4358499;32;20216;-64
2023/07/09 05:02:25;;;;;;;2.07;1.63;;;;;;;20.62;76.81;95969.19;4342968;32;20202;-64
2023/07/09 05:04:50;;;;;;;0.63;0.63;;;;;;;20.65;76.81;95973.91;4358629;32;20227;-64
2023/07/09 05:07:15;;;;;;;1.80;1.70;;;;;;;20.61;77.65;95973.00;4346554;32;20189;-64
2023/07/09 05:09:41;;;;;;;1.50;1.40;;;;;;;20.70;77.43;95971.75;4359476;32;20247;-64
2023/07/09 05:12:08;;;;;;;2.80;1.23;;;;;;;20.65;78.28;95968.50;4356884;32;20269;-64
2023/07/09 05:14:33;;;;;;;3.00;1.17;;;;;;;20.64;78.33;95967.72;4344612;32;20193;-64
2023/07/09 05:16:59;;;;;;;1.30;1.27;;;;;;;20.70;77.41;95965.56;4353880;32;20200;-64
2023/07/09 05:19:24;;;;;;;1.43;1.30;;;;;;;20.76;77.02;95972.31;4357276;32;20204;-64
2023/07/09 05:21:49;;;;;;;0.80;0.80;;;;;;;20.78;77.75;95970.84;4356004;32;20185;-64
2023/07/09 05:24:15;;;;;;;1.20;1.20;;;;;;;20.78;77.89;95973.53;4363254;32;20203;-64
2023/07/09 05:26:40;;;;;;;1.67;1.57;;;;;;;20.76;77.32;95969.59;4362625;32;20223;-64
2023/07/09 05:29:05;;;;;;;2.53;1.87;;;;;;;20.83;77.57;95975.19;4361507;32;20229;-65
2023/07/09 05:31:32;;;;;;;0.80;0.80;;;;;;;20.89;76.93;95976.53;4363147;32;20257;-64
2023/07/09 05:33:59;;;;;;;1.43;1.33;;;;;;;20.91;77.48;95976.97;4347026;32;20189;-64
2023/07/09 05:36:26;;;;;;;2.37;1.20;;;;;;;20.96;77.43;95984.03;4361879;32;20276;-64
2023/07/09 05:38:51;;;;;;;1.43;1.20;;;;;;;20.98;78.05;95987.97;4360623;32;20197;-64
2023/07/09 05:41:17;;;;;;;1.17;1.17;;;;;;;20.97;77.71;95986.38;4360524;32;20189;-64
2023/07/09 05:43:44;;;;;;;1.07;1.07;;;;;;;21.04;76.94;95988.47;4360478;32;20211;-64
2023/07/09 05:46:10;;;;;;;1.47;1.47;;;;;;;21.08;77.14;95989.38;4358336;32;20189;-64
2023/07/09 05:48:36;;;;;;;1.33;1.33;;;;;;;21.14;77.00;95993.41;4360010;32;20211;-64
2023/07/09 05:51:01;;;;;;;0.87;0.87;;;;;;;21.20;76.98;95990.13;4358259;32;20189;-64
2023/07/09 05:53:26;;;;;;;1.23;1.13;;;;;;;21.23;76.38;95999.44;4362943;32;20209;-64
2023/07/09 05:55:55;;;;;;;1.30;1.23;;;;;;;21.27;75.96;95998.41;4356320;32;20233;-64
2023/07/09 05:58:21;;;;;;;1.00;1.00;;;;;;;21.34;75.73;95999.75;4356988;32;20200;-64
2023/07/09 06:00:53;;;;;;;2.80;1.23;;;;;;;21.39;76.94;95996.81;4339862;32;20239;-64
2023/07/09 06:03:19;;;;;;;0.73;0.73;;;;;;;21.43;76.54;96001.16;4336543;32;20193;-64
2023/07/09 06:05:44;;;;;;;0.60;0.60;;;;;;;21.46;75.95;95999.66;4340732;32;20241;-64
2023/07/09 06:08:12;;;;;;;1.00;1.00;;;;;;;21.54;75.92;95998.75;4344263;32;20227;-64
2023/07/09 06:10:43;;;;;;;1.73;1.63;;;;;;;21.59;75.96;95995.78;4356741;32;20272;-64
2023/07/09 06:13:09;;;;;;;3.30;1.27;;;;;;;21.68;75.22;95999.09;4357179;32;20189;-64
2023/07/09 06:15:34;;;;;;;3.70;1.30;;;;;;;21.70;75.43;96002.22;4343626;32;20192;-64
2023/07/09 06:18:00;;;;;;;1.43;1.33;;;;;;;21.80;73.71;96003.66;4346144;32;20254;-64
2023/07/09 06:20:25;;;;;;;1.57;1.47;;;;;;;21.87;74.00;96007.28;4359945;32;20229;-64
2023/07/09 06:22:50;;;;;;;0.60;0.60;;;;;;;21.94;72.92;96007.47;4348078;32;20215;-64
2023/07/09 06:25:16;;;;;;;1.27;1.17;;;;;;;22.03;72.94;96010.00;4347601;32;20232;-64
2023/07/09 06:27:41;;;;;;;1.07;1.07;;;;;;;22.11;73.08;96009.06;4347953;32;20201;-64
2023/07/09 06:30:07;;;;;;;0.73;0.73;;;;;;;22.21;71.66;96011.25;4360199;32;20264;-64
2023/07/09 06:32:32;;;;;;;0.93;0.93;;;;;;;22.34;70.97;96014.63;4361402;32;20292;-64
2023/07/09 06:34:58;;;;;;;1.00;1.00;;;;;;;22.42;70.35;96016.34;4344056;32;20189;-64
2023/07/09 06:37:23;;;;;;;0.60;0.60;;;;;;;22.54;69.42;96021.63;4360712;32;20204;-64
2023/07/09 06:39:48;;;;;;;0.57;0.57;;;;;;;22.63;68.49;96014.13;4354505;32;20208;-64
2023/07/09 06:42:14;;;;;;;1.50;1.50;;;;;;;22.73;68.14;96009.28;4361952;32;20201;-64
2023/07/09 06:44:39;;;;;;;1.63;1.37;;;;;;;22.77;69.34;96002.84;4361436;32;20238;-65
2023/07/09 06:47:04;;;;;;;1.10;1.07;;;;;;;22.82;68.99;96007.19;4347726;32;20193;-65
2023/07/09 06:49:30;;;;;;;1.70;1.60;;;;;;;22.93;68.28;96005.47;4357904;32;20224;-64
2023/07/09 06:51:55;;;;;;;1.00;1.00;;;;;;;22.99;68.30;96001.38;4350625;32;20193;-64
2023/07/09 06:54:20;;;;;;;0.57;0.57;;;;;;;23.09;68.28;96000.78;4350683;32;20236;-64
2023/07/09 06:56:46;;;;;;;1.53;1.13;;;;;;;23.23;67.21;96003.00;4357746;32;20238;-65
2023/07/09 06:59:11;;;;;;;1.30;1.30;;;;;;;23.33;66.59;96012.47;4333843;32;20189;-64
2023/07/09 07:01:36;;;;;;;0.90;0.90;;;;;;;23.45;65.87;96001.47;4350509;32;20292;-64
2023/07/09 07:04:02;;;;;;;1.13;1.07;;;;;;;23.54;65.56;96010.97;4359827;32;20244;-65
2023/07/09 07:06:27;;;;;;;0.97;0.97;;;;;;;23.60;64.84;96004.09;4346980;32;20202;-64
2023/07/09 07:08:52;;;;;;;4.43;1.33;;;;;;;23.72;64.32;96005.84;4361065;32;20220;-64
2023/07/09 07:11:18;;;;;;;0.40;0.40;;;;;;;23.83;63.71;96001.41;4361009;32;20193;-65
2023/07/09 07:13:43;;;;;;;0.50;0.50;;;;;;;23.96;63.42;96002.78;4349596;32;20197;-65
2023/07/09 07:16:11;;;;;;;1.53;1.23;;;;;;;24.10;62.38;96004.19;4355579;32;20193;-65
2023/07/09 07:18:37;;;;;;;0.70;0.70;;;;;;;24.28;62.09;95997.91;4359608;32;20347;-64
2023/07/09 07:21:04;;;;;;;1.03;1.03;;;;;;;24.51;61.11;96007.94;4355528;32;20225;-65
2023/07/09 07:23:30;;;;;;;1.03;1.03;;;;;;;24.69;60.96;96003.53;4346037;32;20291;-65
2023/07/09 07:25:55;;;;;;;1.30;1.27;;;;;;;24.67;60.47;96001.19;4354459;32;20192;-65
2023/07/09 07:28:21;;;;;;;1.03;1.03;;;;;;;24.67;60.09;96005.81;4361028;32;20189;-64
2023/07/09 07:30:46;;;;;;;0.53;0.53;;;;;;;24.67;60.34;96005.81;4362911;32;20207;-65
2023/07/09 07:33:14;;;;;;;1.27;1.27;;;;;;;24.68;59.93;96001.97;4347342;32;20181;-66
2023/07/09 07:35:39;;;;;;;1.30;0.90;;;;;;;24.63;59.10;96003.06;4359750;32;20346;-65
2023/07/09 07:38:04;;;;;;;0.97;0.97;;;;;;;24.64;59.06;95995.69;4347214;32;20197;-65
2023/07/09 07:40:30;;;;;;;0.70;0.70;;;;;;;24.67;59.32;96000.41;4346231;32;20244;-65
2023/07/09 07:42:55;;;;;;;1.40;1.30;;;;;;;24.73;59.02;96000.88;4344261;32;20236;-65
2023/07/09 07:45:21;;;;;;;2.47;1.70;;;;;;;24.70;58.83;95993.47;4351389;32;20242;-65
2023/07/09 07:47:47;;;;;;;3.93;3.30;;;;;;;24.73;57.94;96000.88;4348807;32;20188;-65
2023/07/09 07:50:13;;;;;;;3.27;3.07;;;;;;;24.77;57.42;95994.31;4357759;32;20247;-65
2023/07/09 07:52:38;;;;;;;5.47;3.43;;;;;;;24.85;57.56;95997.91;4357968;32;20213;-65
2023/07/09 07:55:06;;;;;;;4.37;4.07;;;;;;;24.91;58.57;95993.72;4345943;32;20181;-65
2023/07/09 07:57:32;;;;;;;3.87;3.10;;;;;;;24.95;56.44;95994.56;4360011;32;20203;-65
2023/07/09 07:59:57;;;;;;;1.43;1.40;;;;;;;25.03;55.42;96001.66;4358256;32;20201;-65
2023/07/09 08:02:23;;;;;;;2.50;2.37;;;;;;;25.16;55.11;95991.31;4342236;32;20225;-65
2023/07/09 08:04:50;;;;;;;2.23;2.13;;;;;;;25.15;59.15;95987.81;4357909;32;20189;-65
2023/07/09 08:07:17;;;;;;;9.57;6.50;;;;;;;25.15;57.81;95987.06;4352084;32;20193;-65
2023/07/09 08:09:42;;;;;;;5.27;3.70;;;;;;;25.18;55.96;95980.88;4343128;32;20217;-65
2023/07/09 08:12:11;;;;;;;0.57;0.57;;;;;;;25.23;56.92;95989.47;4345744;32;20189;-65
2023/07/09 08:14:38;;;;;;;2.07;1.97;;;;;;;25.32;54.85;95984.56;4360424;32;24227;-65
2023/07/09 08:17:04;;;;;;;5.27;4.87;;;;;;;25.43;54.46;95981.16;4358158;32;20307;-65
2023/07/09 08:19:31;;;;;;;3.77;3.57;;;;;;;25.45;55.08;95987.00;4352209;32;20209;-65
2023/07/09 08:21:56;;;;;;;20.90;17.10;;;;;;;25.49;54.46;95980.44;4355875;32;20201;-65
2023/07/09 08:24:22;;;;;;;4.77;4.47;;;;;;;25.51;53.83;95983.56;4356409;32;20254;-65
2023/07/09 08:26:47;;;;;;;7.93;6.13;;;;;;;25.56;53.99;95977.81;4344058;32;20208;-65
2023/07/09 08:29:13;;;;;;;2.23;2.13;;;;;;;25.60;52.63;95981.31;4347385;32;20223;-65
2023/07/09 08:31:38;;;;;;;5.93;1.53;;;;;;;25.66;54.63;95981.81;4345896;32;20193;-65
2023/07/09 08:34:06;;;;;;;1.57;1.47;;;;;;;25.80;50.53;95976.47;4358899;32;20195;-65
2023/07/09 08:36:31;;;;;;;1.37;1.33;;;;;;;25.95;49.81;95974.69;4356481;32;20193;-65
2023/07/09 08:38:57;;;;;;;1.00;1.00;;;;;;;26.08;49.92;95975.16;4346015;32;20272;-65
2023/07/09 08:41:41;;;;;;;0.43;0.43;;;;;;;26.14;50.05;95970.94;4346093;32;20193;-65
2023/07/09 08:44:28;;;;;;;1.97;1.13;;;;;;;26.12;50.93;95963.16;4347704;32;20264;-65
2023/07/09 08:47:03;;;;;;;0.90;0.90;;;;;;;26.29;49.87;95967.16;4353517;32;20232;-65
2023/07/09 08:49:43;;;;;;;1.30;1.00;;;;;;;26.32;49.77;95967.22;4359627;32;20207;-64
2023/07/09 08:52:24;;;;;;;1.03;1.03;;;;;;;26.31;49.28;95962.16;4358579;32;20226;-65
2023/07/09 08:54:50;;;;;;;0.90;0.90;;;;;;;26.29;49.97;95961.72;4357649;32;20188;-65
2023/07/09 08:57:28;;;;;;;1.67;1.33;;;;;;;26.43;48.66;95966.47;4359451;32;20201;-65
2023/07/09 09:00:02;;;;;;;1.00;1.00;;;;;;;26.61;47.81;95956.47;4363309;32;20201;-65
2023/07/09 09:02:38;;;;;;;0.70;0.70;;;;;;;26.64;48.16;95961.94;4349318;32;20193;-65
2023/07/09 09:05:05;;;;;;;0.83;0.83;;;;;;;26.62;50.17;95967.00;4348739;32;20303;-65
2023/07/09 09:07:42;;;;;;;0.53;0.53;;;;;;;26.70;48.81;95962.37;4344984;32;20197;-65
2023/07/09 09:10:17;;;;;;;0.40;0.40;;;;;;;26.88;44.90;95965.16;4360149;32;20283;-65
2023/07/09 09:12:56;;;;;;;1.33;1.23;;;;;;;26.94;44.95;95963.66;4348399;32;20196;-65
2023/07/09 09:15:22;;;;;;;1.53;1.43;;;;;;;27.08;43.22;95962.94;4347643;32;20201;-65
2023/07/09 09:17:53;;;;;;;0.97;0.97;;;;;;;27.11;42.93;95962.97;4360558;32;20207;-65
2023/07/09 09:20:29;;;;;;;2.10;1.27;;;;;;;27.24;42.40;95966.09;4362664;32;20254;-65
2023/07/09 09:23:15;;;;;;;0.40;0.40;;;;;;;27.10;43.38;95966.84;4360943;32;20177;-65
2023/07/09 09:25:44;;;;;;;1.43;1.33;;;;;;;27.07;43.04;95970.34;4348101;32;20285;-65
2023/07/09 09:28:09;;;;;;;1.23;1.23;;;;;;;27.06;44.43;95968.78;4349910;32;20181;-65
2023/07/09 09:30:35;;;;;;;0.83;0.63;;;;;;;27.08;44.66;95966.44;4360036;32;20249;-65
2023/07/09 09:33:04;;;;;;;0.70;0.60;;;;;;;27.02;46.88;95965.25;4361357;32;20212;-65
2023/07/09 09:35:37;;;;;;;0.83;0.83;;;;;;;26.99;45.73;95966.81;4359238;32;20196;-65
2023/07/09 09:38:12;;;;;;;13.33;0.77;;;;;;;27.00;45.09;95957.50;4348376;32;20278;-65
2023/07/09 09:40:38;;;;;;;0.80;0.80;;;;;;;27.04;44.59;95958.25;4348925;32;20279;-65
2023/07/09 09:43:13;;;;;;;0.93;0.87;;;;;;;27.06;44.50;95963.31;4348520;32;20255;-65
2023/07/09 09:45:40;;;;;;;3.13;1.90;;;;;;;27.05;44.92;95969.94;4347810;32;20196;-65
2023/07/09 09:48:14;;;;;;;5.00;0.60;;;;;;;27.16;43.74;95968.03;4360505;32;20193;-65
2023/07/09 09:50:40;;;;;;;0.83;0.60;;;;;;;27.31;42.61;95961.47;4346269;32;20197;-65
2023/07/09 09:53:07;;;;;;;0.67;0.67;;;;;;;27.58;41.09;95964.66;4354425;32;20219;-65
2023/07/09 09:55:34;;;;;;;0.90;0.90;;;;;;;27.78;40.98;95967.03;4362635;32;20253;-65
2023/07/09 09:58:00;;;;;;;2.40;1.33;;;;;;;27.89;40.12;95951.44;4348962;32;20220;-65
2023/07/09 10:00:28;;;;;;;0.60;0.60;;;;;;;27.96;39.94;95965.88;4346769;32;20250;-65
2023/07/09 10:02:59;;;;;;;1.20;1.10;;;;;;;28.23;38.34;95966.28;4346792;32;20270;-65
2023/07/09 10:05:31;;;;;;;1.20;1.07;;;;;;;28.31;37.79;95965.09;4358469;32;20192;-65
2023/07/09 10:08:09;;;;;;;0.73;0.73;;;;;;;28.41;38.13;95957.28;4359262;32;20242;-65
2023/07/09 10:10:34;;;;;;;0.73;0.73;;;;;;;28.43;38.02;95969.37;4354721;32;20199;-65
2023/07/09 10:13:28;;;;;;;23.70;1.80;;;;;;;28.38;37.86;95958.84;4359239;32;20200;-65
2023/07/09 10:16:21;;;;;;;0.50;0.50;;;;;;;28.47;38.56;95967.41;4346549;32;20271;-65
2023/07/09 10:18:55;;;;;;;0.70;0.70;;;;;;;28.42;38.10;95962.34;4348650;32;20203;-65
2023/07/09 10:21:41;;;;;;;2.20;1.20;;;;;;;28.23;39.65;95954.59;4358754;32;20201;-65
2023/07/09 10:24:32;;;;;;;0.60;0.60;;;;;;;28.13;38.95;95958.84;4359727;32;20193;-65
2023/07/09 10:27:09;;;;;;;1.17;1.13;;;;;;;28.10;39.40;95961.56;4357921;32;20197;-65
2023/07/09 10:29:55;;;;;;;1.10;1.10;;;;;;;28.13;40.29;95958.84;4361614;32;20189;-65
2023/07/09 10:32:42;;;;;;;0.83;0.80;;;;;;;28.06;41.51;95945.19;4355951;32;20208;-65
2023/07/09 10:35:27;;;;;;;0.60;0.60;;;;;;;28.18;39.77;95949.47;4361306;32;20283;-65
2023/07/09 10:38:16;;;;;;;0.93;0.93;;;;;;;28.37;39.37;95958.06;4340232;32;20227;-65
2023/07/09 10:40:53;;;;;;;0.80;0.80;;;;;;;28.25;39.81;95953.03;4360678;32;20193;-65
2023/07/09 10:43:33;;;;;;;2.30;1.47;;;;;;;28.21;40.25;95951.47;4343194;32;20192;-65
2023/07/09 10:46:05;;;;;;;0.73;0.73;;;;;;;28.19;40.97;95957.28;4362134;32;20191;-65
2023/07/09 10:48:35;;;;;;;0.80;0.80;;;;;;;28.18;41.29;95960.41;4359825;32;20186;-65
2023/07/09 10:51:03;;;;;;;3.63;1.73;;;;;;;28.15;40.38;95956.50;4363281;32;20212;-65
2023/07/09 10:53:45;;;;;;;2.57;1.50;;;;;;;28.04;40.69;95959.25;4360782;32;20185;-65
2023/07/09 10:56:13;;;;;;;1.63;1.53;;;;;;;28.01;41.05;95957.28;4352310;32;20239;-65
2023/07/09 10:59:05;;;;;;;0.60;0.60;;;;;;;28.03;39.91;95957.69;4346562;32;20219;-65
2023/07/09 11:01:54;;;;;;;3.07;1.77;;;;;;;28.09;40.58;95954.53;4345582;32;20205;-65
2023/07/09 11:04:42;;;;;;;1.43;1.43;;;;;;;28.14;40.63;95941.28;4361569;32;20189;-65
2023/07/09 11:07:13;;;;;;;3.57;1.27;;;;;;;28.18;40.56;95941.28;4356651;32;20281;-65
2023/07/09 11:09:43;;;;;;;2.20;0.40;;;;;;;28.24;40.59;95945.22;4357292;32;20192;-65
2023/07/09 11:12:24;;;;;;;0.80;0.80;;;;;;;28.31;41.69;95940.50;4360046;32;20283;-65
2023/07/09 11:15:01;;;;;;;4.60;0.80;;;;;;;28.51;40.01;95931.87;4362966;32;20193;-65
2023/07/09 11:17:28;;;;;;;1.73;1.17;;;;;;;28.89;38.75;95935.72;4347213;32;20193;-65
2023/07/09 11:19:57;;;;;;;1.30;0.57;;;;;;;28.96;38.65;95952.06;4359532;32;20220;-65
2023/07/09 11:22:24;;;;;;;2.70;0.93;;;;;;;28.94;38.19;95938.78;4352313;32;20254;-65
2023/07/09 11:24:52;;;;;;;1.23;1.23;;;;;;;29.01;37.92;95935.25;4360678;32;20252;-65
2023/07/09 11:27:22;;;;;;;2.33;0.80;;;;;;;29.07;38.35;95947.34;4353353;32;20248;-65
2023/07/09 11:29:55;;;;;;;1.37;1.27;;;;;;;29.02;38.99;95939.56;4344185;32;20189;-65
2023/07/09 11:32:22;;;;;;;1.10;1.10;;;;;;;28.93;39.38;95937.22;4343268;32;20198;-65
2023/07/09 11:34:48;;;;;;;1.80;1.70;;;;;;;28.86;39.98;95937.28;4356940;32;20209;-65
2023/07/09 11:37:14;;;;;;;1.07;1.03;;;;;;;28.83;39.51;95934.56;4343885;32;20197;-65
2023/07/09 11:39:40;;;;;;;1.37;1.27;;;;;;;28.74;39.81;95927.53;4345930;32;20220;-66